Time;durP1;ratioP1;P1;durP2;ratioP2;P2;SDS_P1;SDS_P2;PMS_P1;PMS_P2;Temp;Humidity;BMP_temperature;BMP_pressure;BME280_temperature;BME280_humidity;BME280_pressure;Samples;Min_cycle;Max_cycle;Signal;HPM_P1;HPM_P2
2023/10/19 00:00:56;;;;;;;1.90;1.40;;;;;;;13.96;83.04;96816.97;5002415;28;20469;-48
2023/10/19 00:03:24;;;;;;;2.05;1.38;;;;;;;13.94;82.51;96824.03;5011473;28;20046;-50
2023/10/19 00:05:51;;;;;;;2.30;1.52;;;;;;;13.94;82.24;96826.63;5014112;28;20453;-47
2023/10/19 00:08:21;;;;;;;1.90;1.25;;;;;;;13.91;82.39;96824.28;5011516;28;20053;-50
2023/10/19 00:11:01;;;;;;;1.92;1.02;;;;;;;13.91;82.11;96826.88;5017247;28;20624;-49
2023/10/19 00:13:30;;;;;;;1.75;0.95;;;;;;;13.85;82.42;96826.34;5006411;28;20070;-50
2023/10/19 00:15:57;;;;;;;2.70;1.50;;;;;;;13.86;81.79;96828.03;5010753;28;20058;-51
2023/10/19 00:18:24;;;;;;;2.35;1.67;;;;;;;13.83;81.68;96833.44;5009483;28;20050;-49
2023/10/19 00:20:54;;;;;;;2.90;1.65;;;;;;;13.82;81.99;96844.75;5015652;28;20050;-51
2023/10/19 00:23:31;;;;;;;;;;;;;;;13.62;82.78;96841.72;5008027;28;20049;-49
2023/10/19 00:26:00;;;;;;;2.17;1.67;;;;;;;13.71;81.90;96845.47;5015440;28;19921;-47
2023/10/19 00:28:27;;;;;;;3.00;1.48;;;;;;;13.75;82.02;96835.72;5013717;28;20050;-48
2023/10/19 00:31:03;;;;;;;2.42;1.63;;;;;;;13.69;81.86;96847.38;5017937;28;20054;-47
2023/10/19 00:33:32;;;;;;;3.53;2.85;;;;;;;13.70;82.74;96842.97;4999291;28;20097;-50
2023/10/19 00:36:06;;;;;;;3.90;2.42;;;;;;;13.71;82.19;96862.88;5009966;28;20073;-46
2023/10/19 00:43:50;;;;;;;4.45;2.33;;;;;;;13.73;82.00;96868.78;5047772;28;20402;-47
2023/10/19 00:48:57;;;;;;;4.82;3.15;;;;;;;13.71;82.11;96883.69;5018683;27;20411;-49
2023/10/19 00:54:15;;;;;;;4.20;2.58;;;;;;;13.70;82.20;96882.00;5072928;27;20414;-47
2023/10/19 00:56:48;;;;;;;4.78;2.40;;;;;;;13.71;81.69;96881.06;5063589;28;20513;-51
2023/10/19 00:59:23;;;;;;;4.07;2.40;;;;;;;13.64;81.90;96888.44;5054514;28;20136;-50
2023/10/19 01:01:55;;;;;;;4.68;2.75;;;;;;;13.70;82.27;96889.78;5049988;28;20041;-50
2023/10/19 01:04:23;;;;;;;5.80;3.50;;;;;;;13.67;82.20;96884.78;5081101;28;20139;-51
2023/10/19 01:07:11;;;;;;;4.25;2.13;;;;;;;13.73;82.24;96881.78;5048691;28;20073;-47
2023/10/19 01:09:38;;;;;;;3.17;1.95;;;;;;;13.72;82.10;96882.72;5044634;28;20048;-49
2023/10/19 01:12:25;;;;;;;1.98;1.33;;;;;;;13.72;82.27;96880.94;5055252;28;20048;-50
2023/10/19 01:15:13;;;;;;;2.22;1.15;;;;;;;13.67;81.78;96882.19;5051478;28;20076;-49
2023/10/19 01:17:43;;;;;;;2.28;1.05;;;;;;;13.72;82.05;96883.53;5067703;28;20041;-47
2023/10/19 01:34:06;;;;;;;3.72;3.42;;;;;;;13.76;82.02;96905.00;5030890;27;20907;-49
2023/10/19 01:36:42;;;;;;;2.90;2.70;;;;;;;13.78;82.41;96910.91;5038358;28;20136;-47
2023/10/19 01:39:10;;;;;;;3.55;3.25;;;;;;;13.77;82.52;96906.66;5032395;28;20119;-50
2023/10/19 01:41:41;;;;;;;3.33;3.03;;;;;;;13.79;81.52;96919.56;5023531;28;20116;-50
2023/10/19 01:44:12;;;;;;;3.35;2.13;;;;;;;13.78;82.64;96918.72;5035894;28;20469;-49
2023/10/19 01:46:40;;;;;;;5.05;4.68;;;;;;;13.78;81.95;96916.13;5023415;28;20041;-50
2023/10/19 01:49:08;;;;;;;5.32;4.03;;;;;;;13.79;82.14;96915.22;5034222;28;20045;-49
2023/10/19 01:51:38;;;;;;;3.88;3.47;;;;;;;13.80;81.95;96922.06;5028941;28;20143;-55
2023/10/19 01:54:07;;;;;;;3.50;3.20;;;;;;;13.80;82.17;96927.28;5050599;28;20049;-49
2023/10/19 01:56:35;;;;;;;3.88;3.58;;;;;;;13.79;82.76;96929.97;5025989;28;20133;-47
2023/10/19 01:59:04;;;;;;;5.03;4.53;;;;;;;13.79;82.90;96930.81;5035712;28;20053;-48
2023/10/19 02:01:32;;;;;;;3.83;3.10;;;;;;;13.80;82.12;96921.22;5027988;28;20048;-47
2023/10/19 02:04:01;;;;;;;5.68;2.90;;;;;;;13.85;82.15;96930.38;5031113;28;20407;-48
2023/10/19 02:09:29;;;;;;;2.17;1.30;;;;;;;13.85;82.17;96932.19;5021731;27;20914;-47
2023/10/19 02:11:57;;;;;;;4.57;1.83;;;;;;;13.83;82.08;96932.28;5004827;28;20599;-46
2023/10/19 02:14:26;;;;;;;3.22;1.50;;;;;;;13.80;81.99;96937.69;5017311;28;20045;-49
2023/10/19 02:16:56;;;;;;;1.00;0.70;;;;;;;13.81;82.36;96944.53;5018425;28;20498;-48
2023/10/19 02:19:25;;;;;;;1.02;0.63;;;;;;;13.81;82.13;96939.34;5010482;28;20042;-45
2023/10/19 02:21:57;;;;;;;1.30;1.17;;;;;;;13.78;82.00;96929.13;5014050;28;20137;-47
2023/10/19 02:24:25;;;;;;;0.68;0.22;;;;;;;13.79;81.53;96923.00;5009066;28;20045;-50
2023/10/19 02:26:55;;;;;;;1.85;0.50;;;;;;;13.75;81.48;96931.94;5014647;28;20074;-50
2023/10/19 02:29:22;;;;;;;0.85;0.40;;;;;;;13.71;81.01;96927.88;5016048;28;20049;-50
2023/10/19 02:31:50;;;;;;;1.08;0.60;;;;;;;13.66;81.34;96927.34;5004864;28;20044;-50
2023/10/19 02:34:17;;;;;;;2.25;0.70;;;;;;;13.56;80.99;96943.56;5020695;28;20149;-49
2023/10/19 02:36:45;;;;;;;1.88;0.65;;;;;;;13.52;80.76;96942.09;5020910;28;20139;-48
2023/10/19 02:39:14;;;;;;;2.67;0.50;;;;;;;13.47;80.86;96951.91;5009244;28;20427;-49
2023/10/19 02:41:44;;;;;;;1.55;0.70;;;;;;;13.43;81.26;96953.03;5012836;28;20566;-48
2023/10/19 02:46:58;;;;;;;4.15;1.45;;;;;;;13.71;79.51;96946.09;5067168;27;20809;-45
2023/10/19 02:49:29;;;;;;;2.67;2.47;;;;;;;13.45;80.20;96953.78;5070049;28;20057;-48
2023/10/19 02:52:02;;;;;;;;;;;;;;;13.25;80.87;96963.69;5071947;28;20053;-45
2023/10/19 02:54:32;;;;;;;3.78;3.35;;;;;;;13.32;80.39;96964.13;5041741;28;20002;-47
2023/10/19 02:57:00;;;;;;;7.50;3.80;;;;;;;13.31;80.36;96960.69;5038462;28;20041;-51
2023/10/19 02:59:29;;;;;;;4.05;2.25;;;;;;;13.32;79.99;96966.72;5034314;28;20053;-48
2023/10/19 03:02:01;;;;;;;3.90;2.60;;;;;;;13.29;80.26;96959.97;5050695;28;20060;-52
2023/10/19 03:04:29;;;;;;;2.70;2.50;;;;;;;13.32;80.96;96974.53;5035540;28;20041;-52
2023/10/19 03:06:57;;;;;;;7.55;2.17;;;;;;;13.33;80.85;96966.63;5073862;28;20081;-50
2023/10/19 03:12:05;;;;;;;5.68;1.23;;;;;;;13.36;80.75;96957.78;5037758;27;20406;-51
2023/10/19 03:14:32;;;;;;;4.03;1.90;;;;;;;13.37;80.36;96952.50;5014397;28;20053;-49
2023/10/19 03:17:00;;;;;;;3.10;1.40;;;;;;;13.42;80.08;96948.78;5026065;28;20088;-48
2023/10/19 03:19:27;;;;;;;2.10;0.98;;;;;;;13.39;80.95;96956.75;5027242;28;20041;-49
2023/10/19 03:21:55;;;;;;;1.90;0.80;;;;;;;13.41;80.17;96963.53;5027176;28;20053;-50
2023/10/19 03:24:35;;;;;;;1.75;0.43;;;;;;;13.42;80.99;96965.22;5032226;28;20052;-49
2023/10/19 03:29:55;;;;;;;3.35;0.40;;;;;;;13.41;80.17;96963.53;5011672;28;20045;-46
2023/10/19 03:32:28;;;;;;;1.42;1.08;;;;;;;13.43;81.00;96956.47;5026815;28;20425;-50
2023/10/19 03:34:56;;;;;;;4.28;1.63;;;;;;;13.40;81.17;96955.84;5024942;28;20049;-53
2023/10/19 03:37:25;;;;;;;2.25;0.80;;;;;;;13.42;81.27;96959.16;5026500;28;20096;-47
2023/10/19 03:39:55;;;;;;;1.63;1.17;;;;;;;13.44;80.94;96952.94;5030535;28;20045;-50
2023/10/19 03:42:26;;;;;;;1.08;0.40;;;;;;;13.46;80.93;96960.63;5021807;28;20054;-49
2023/10/19 03:44:54;;;;;;;;;;;;;;;13.35;81.44;96953.53;5028820;28;20061;-49
2023/10/19 03:47:26;;;;;;;2.45;0.80;;;;;;;13.44;81.23;96957.31;5023499;28;20302;-52
2023/10/19 03:49:53;;;;;;;2.17;0.90;;;;;;;13.46;80.53;96952.84;5027829;28;20060;-52
2023/10/19 03:52:20;;;;;;;4.32;0.60;;;;;;;13.48;80.90;96953.59;5026400;28;20116;-48
2023/10/19 03:54:47;;;;;;;2.08;1.05;;;;;;;13.50;80.64;96951.75;5027126;28;20049;-48
2023/10/19 03:57:22;;;;;;;3.53;0.80;;;;;;;13.52;81.29;96956.84;5030420;28;20497;-51
2023/10/19 03:59:56;;;;;;;2.58;0.43;;;;;;;13.54;80.90;96958.41;5024754;28;20073;-45
2023/10/19 04:02:23;;;;;;;1.70;1.02;;;;;;;13.56;80.64;96956.56;5033143;28;20057;-50
2023/10/19 04:04:52;;;;;;;1.85;0.50;;;;;;;13.56;80.96;96946.16;5023292;28;20777;-49
2023/10/19 04:07:25;;;;;;;2.78;0.60;;;;;;;13.59;81.35;96951.16;5032028;28;20049;-48
2023/10/19 04:10:29;;;;;;;0.50;0.30;;;;;;;13.61;81.86;96944.06;5015885;28;20049;-50
2023/10/19 04:12:42;;;;;;;2.35;0.88;;;;;;;13.62;81.30;96935.34;5021717;28;20041;-50
2023/10/19 04:17:50;;;;;;;2.03;0.55;;;;;;;13.68;81.69;96935.88;5036756;27;20394;-52
2023/10/19 04:22:54;;;;;;;1.05;0.93;;;;;;;13.72;81.71;96935.56;5053512;27;20450;-48
2023/10/19 04:25:25;;;;;;;2.33;2.13;;;;;;;13.71;81.90;96927.88;5021249;28;20402;-47
2023/10/19 04:27:53;;;;;;;3.75;0.60;;;;;;;13.74;81.98;96927.66;5016432;28;20042;-49
2023/10/19 04:30:27;;;;;;;2.45;0.63;;;;;;;13.75;81.61;96918.94;5014447;28;20049;-51
2023/10/19 04:32:57;;;;;;;0.77;0.77;;;;;;;13.75;82.82;96904.16;5016913;28;20099;-50
2023/10/19 04:35:29;;;;;;;3.95;1.40;;;;;;;13.75;82.35;96917.16;5021983;28;20049;-49
2023/10/19 04:37:57;;;;;;;1.30;0.80;;;;;;;13.78;82.80;96923.91;5017523;28;20049;-46
2023/10/19 04:40:23;;;;;;;1.17;0.52;;;;;;;13.74;83.13;96922.47;5023428;28;20057;-49
2023/10/19 04:42:52;;;;;;;1.00;0.63;;;;;;;13.74;82.92;96925.06;5020694;28;20128;-49
2023/10/19 04:45:19;;;;;;;4.75;0.93;;;;;;;13.77;82.49;96927.47;5018943;28;20071;-47
2023/10/19 04:47:51;;;;;;;5.47;1.23;;;;;;;13.79;82.44;96920.41;5016968;28;20198;-47
2023/10/19 04:50:18;;;;;;;3.63;1.58;;;;;;;13.80;83.37;96916.88;5011122;28;20371;-51
2023/10/19 04:52:45;;;;;;;3.63;1.33;;;;;;;13.82;83.64;96920.19;5019610;28;20054;-48
2023/10/19 04:55:12;;;;;;;2.60;0.80;;;;;;;13.82;83.42;96917.56;5016574;28;20197;-51
2023/10/19 04:57:39;;;;;;;2.42;1.08;;;;;;;13.87;83.09;96923.34;5014869;28;20050;-50
2023/10/19 05:00:07;;;;;;;4.60;2.30;;;;;;;13.91;82.88;96917.94;5016851;28;20411;-48
2023/10/19 05:02:34;;;;;;;4.10;1.80;;;;;;;13.93;83.17;96916.03;5016239;28;20503;-51
2023/10/19 05:05:01;;;;;;;3.22;1.08;;;;;;;13.94;83.13;96917.69;5019920;28;20048;-48
2023/10/19 05:07:28;;;;;;;2.95;0.90;;;;;;;13.97;83.46;96920.09;5022437;28;20049;-45
2023/10/19 05:09:55;;;;;;;4.32;1.10;;;;;;;13.95;83.70;96912.41;5021748;28;20071;-46
2023/10/19 05:12:22;;;;;;;4.03;0.95;;;;;;;13.96;83.07;96910.63;5016318;28;20041;-49
2023/10/19 05:14:49;;;;;;;3.38;1.33;;;;;;;13.93;83.50;96911.69;5019951;28;20052;-51
2023/10/19 05:17:16;;;;;;;4.55;0.57;;;;;;;13.95;84.65;96901.19;5020964;28;20116;-46
2023/10/19 05:19:43;;;;;;;4.30;1.77;;;;;;;14.01;83.07;96903.34;5022526;28;20088;-48
2023/10/19 05:22:10;;;;;;;3.80;1.00;;;;;;;14.00;84.14;96901.69;5022119;28;20663;-47
2023/10/19 05:24:37;;;;;;;5.93;1.23;;;;;;;14.00;84.83;96912.09;5021627;28;20046;-45
2023/10/19 05:27:04;;;;;;;7.32;1.85;;;;;;;14.03;84.27;96904.09;5015125;28;20045;-47
2023/10/19 05:29:33;;;;;;;5.60;1.23;;;;;;;14.07;83.85;96913.34;5021501;28;20128;-49
2023/10/19 05:32:00;;;;;;;5.90;1.63;;;;;;;14.09;84.36;96906.25;5018329;28;20129;-48
2023/10/19 05:34:29;;;;;;;5.63;0.98;;;;;;;14.10;84.71;96907.09;5006546;28;20103;-48
2023/10/19 05:36:58;;;;;;;3.88;0.98;;;;;;;14.14;84.45;96896.38;5009619;28;20081;-50
2023/10/19 05:39:30;;;;;;;7.07;1.38;;;;;;;14.18;84.03;96904.00;5008398;28;20049;-47
2023/10/19 05:42:00;;;;;;;5.40;1.35;;;;;;;14.21;83.86;96898.56;5008814;28;20052;-46
2023/10/19 05:44:30;;;;;;;;;;;;;;;14.11;84.87;96896.59;5009410;28;20060;-48
2023/10/19 05:46:58;;;;;;;;;;;;;;;14.14;85.10;96899.00;5003716;28;19940;-48
2023/10/19 05:49:25;;;;;;;4.50;0.98;;;;;;;14.27;84.06;96892.94;5008369;28;19955;-47
2023/10/19 05:51:53;;;;;;;7.05;1.30;;;;;;;14.30;84.74;96891.88;5008105;28;20050;-50
2023/10/19 05:54:19;;;;;;;6.40;1.35;;;;;;;14.32;84.60;96885.63;5008776;28;20045;-48
2023/10/19 05:56:47;;;;;;;12.27;2.17;;;;;;;14.35;84.45;96885.44;5006971;28;20050;-49
2023/10/19 05:59:14;;;;;;;5.95;1.20;;;;;;;14.36;84.76;96887.09;5002867;28;20909;-47
2023/10/19 06:01:41;;;;;;;8.27;1.92;;;;;;;14.38;84.80;96890.44;5008234;28;20077;-49
2023/10/19 06:04:08;;;;;;;5.43;1.75;;;;;;;14.42;84.35;96872.00;5007949;28;20708;-51
2023/10/19 06:06:36;;;;;;;3.40;1.58;;;;;;;14.40;84.75;96878.13;5007744;28;20130;-52
2023/10/19 06:09:04;;;;;;;9.50;2.50;;;;;;;14.44;85.16;96877.91;5008386;28;20071;-48
2023/10/19 06:11:32;;;;;;;5.75;1.85;;;;;;;14.45;84.87;96869.19;5003716;28;20038;-54
2023/10/19 06:13:59;;;;;;;1.58;0.93;;;;;;;14.45;85.40;96875.22;5005938;28;20463;-51
2023/10/19 06:16:27;;;;;;;7.45;1.40;;;;;;;14.51;85.18;96869.59;5001410;28;20101;-52
2023/10/19 06:18:54;;;;;;;2.45;1.58;;;;;;;14.48;85.64;96861.97;4987527;28;20071;-50
2023/10/19 06:21:22;;;;;;;6.18;1.25;;;;;;;14.54;85.64;96873.75;4988015;28;20046;-51
2023/10/19 06:23:50;;;;;;;4.43;1.40;;;;;;;14.55;86.05;96864.97;4986773;28;20137;-51
2023/10/19 06:26:17;;;;;;;5.53;1.73;;;;;;;14.58;85.60;96863.94;4988381;28;20046;-51
2023/10/19 06:28:44;;;;;;;4.95;1.35;;;;;;;14.59;85.56;96860.41;4984671;28;20061;-49
2023/10/19 06:31:11;;;;;;;7.70;1.75;;;;;;;14.63;85.63;96867.06;4987559;28;20451;-48
2023/10/19 06:33:41;;;;;;;4.53;1.55;;;;;;;14.63;86.33;96867.06;4988474;28;20050;-50
2023/10/19 06:36:08;;;;;;;5.25;1.52;;;;;;;14.65;86.27;96868.59;4988263;28;20077;-46
2023/10/19 06:38:36;;;;;;;3.33;1.45;;;;;;;14.68;86.44;96874.53;4986806;28;20060;-48
2023/10/19 06:41:18;;;;;;;8.07;1.42;;;;;;;14.71;86.12;96879.53;4987142;28;20054;-48
2023/10/19 06:43:46;;;;;;;7.85;1.45;;;;;;;14.78;85.88;96880.78;4979895;28;20050;-47
2023/10/19 06:46:14;;;;;;;5.82;1.67;;;;;;;14.82;85.89;96874.41;4987042;28;20042;-49
2023/10/19 06:48:42;;;;;;;6.25;1.60;;;;;;;14.80;86.58;96878.91;4988082;28;20070;-48
2023/10/19 06:51:09;;;;;;;5.18;1.95;;;;;;;14.84;86.97;96877.75;4985841;28;20061;-48
2023/10/19 06:53:36;;;;;;;4.10;1.15;;;;;;;14.83;86.75;96878.69;4986292;28;20053;-50
2023/10/19 06:56:04;;;;;;;2.35;1.15;;;;;;;14.86;86.63;96888.88;4986290;28;20046;-48
2023/10/19 06:58:31;;;;;;;2.95;1.95;;;;;;;14.88;86.79;96878.34;4988147;28;20545;-48
2023/10/19 07:01:05;;;;;;;2.35;1.08;;;;;;;14.88;86.63;96880.97;4983291;28;20050;-48
2023/10/19 07:03:32;;;;;;;4.65;1.33;;;;;;;14.91;87.21;96896.38;4986256;28;20555;-47
2023/10/19 07:05:59;;;;;;;2.70;1.35;;;;;;;14.93;86.93;96901.50;4986416;28;20054;-49
2023/10/19 07:08:27;;;;;;;8.73;0.90;;;;;;;14.96;87.01;96893.47;4986512;28;20053;-51
2023/10/19 07:10:56;;;;;;;6.38;0.88;;;;;;;14.98;86.63;96896.78;4986122;28;20054;-51
2023/10/19 07:13:22;;;;;;;3.45;1.05;;;;;;;14.98;86.91;96884.59;4986422;28;20046;-53
2023/10/19 07:15:49;;;;;;;2.55;0.70;;;;;;;15.00;87.06;96884.47;4987934;28;20431;-47
2023/10/19 07:18:16;;;;;;;5.60;1.17;;;;;;;15.03;86.51;96889.47;4987089;28;20046;-49
2023/10/19 07:20:43;;;;;;;3.00;0.93;;;;;;;15.04;86.77;96891.13;4984758;28;20140;-48
2023/10/19 07:23:10;;;;;;;2.33;1.67;;;;;;;15.07;86.63;96896.13;4981731;28;20414;-47
2023/10/19 07:25:43;;;;;;;1.80;0.95;;;;;;;15.07;86.13;96890.91;4987283;28;20046;-50
2023/10/19 07:28:12;;;;;;;1.60;0.77;;;;;;;15.11;86.07;96894.13;4985403;28;20134;-51
2023/10/19 07:30:41;;;;;;;0.65;0.45;;;;;;;15.11;86.18;96891.50;4987126;28;20042;-51
2023/10/19 07:33:09;;;;;;;3.30;0.70;;;;;;;15.14;85.93;96894.72;4987456;28;20081;-50
2023/10/19 07:35:39;;;;;;;2.90;1.02;;;;;;;15.18;86.14;96904.94;4968247;28;20046;-47
2023/10/19 07:38:07;;;;;;;2.70;0.60;;;;;;;15.16;86.43;96905.88;4987201;28;20097;-48
2023/10/19 07:40:34;;;;;;;5.90;2.10;;;;;;;15.20;86.00;96900.44;4986559;28;20643;-50
2023/10/19 07:43:03;;;;;;;1.50;0.95;;;;;;;15.25;85.50;96914.81;4987159;28;20080;-46
2023/10/19 07:45:31;;;;;;;2.50;1.48;;;;;;;15.22;85.55;96908.97;4987001;28;20050;-49
2023/10/19 07:48:05;;;;;;;3.20;0.82;;;;;;;15.28;85.84;96913.75;4987192;28;20108;-50
2023/10/19 07:50:34;;;;;;;1.52;0.80;;;;;;;15.32;85.51;96916.97;4985692;28;20053;-49
2023/10/19 07:53:01;;;;;;;1.77;0.75;;;;;;;15.37;85.69;96907.84;4983292;28;20050;-49
2023/10/19 07:55:31;;;;;;;2.13;0.65;;;;;;;15.37;85.64;96913.06;4986054;28;20050;-47
2023/10/19 07:58:00;;;;;;;3.60;1.10;;;;;;;15.46;84.92;96915.94;4985636;28;20069;-48
2023/10/19 08:00:36;;;;;;;9.18;0.98;;;;;;;15.51;85.42;96913.84;4984000;28;20050;-49
2023/10/19 08:03:04;;;;;;;2.25;0.95;;;;;;;15.57;85.11;96918.59;4986777;28;20054;-46
2023/10/19 08:05:33;;;;;;;7.25;1.08;;;;;;;15.63;84.97;96917.31;4986506;28;20068;-47
2023/10/19 08:08:01;;;;;;;4.93;1.77;;;;;;;15.65;84.75;96921.50;4978895;28;20046;-49
2023/10/19 08:10:28;;;;;;;5.93;0.82;;;;;;;15.86;84.48;96912.16;4986641;28;20531;-48
2023/10/19 08:12:55;;;;;;;3.05;0.85;;;;;;;16.01;84.21;96920.69;4984422;28;20121;-50
2023/10/19 08:15:22;;;;;;;2.38;1.02;;;;;;;16.09;84.01;96917.47;4983586;28;20053;-51
2023/10/19 08:17:53;;;;;;;2.75;1.27;;;;;;;16.11;83.30;96926.84;4986999;28;20057;-50
2023/10/19 08:20:23;;;;;;;5.47;0.63;;;;;;;16.14;83.06;96918.78;4985545;28;20150;-50
2023/10/19 08:22:52;;;;;;;4.07;1.30;;;;;;;16.27;83.52;96936.13;4972062;28;20057;-48
2023/10/19 08:25:20;;;;;;;3.15;0.68;;;;;;;16.35;83.29;96928.53;5006097;28;20522;-50
2023/10/19 08:27:49;;;;;;;5.00;1.55;;;;;;;16.35;82.26;96928.53;5005612;28;20061;-47
2023/10/19 08:30:19;;;;;;;2.47;1.60;;;;;;;16.32;82.45;96918.34;4996519;28;20042;-48
2023/10/19 08:32:49;;;;;;;2.10;0.98;;;;;;;16.29;82.53;96923.78;5004713;28;20100;-48
2023/10/19 08:35:20;;;;;;;6.00;1.60;;;;;;;16.23;82.33;96929.47;5005061;28;20038;-49
2023/10/19 08:37:47;;;;;;;6.60;1.48;;;;;;;16.21;82.16;96931.38;5005956;28;20710;-50
2023/10/19 08:40:15;;;;;;;4.90;2.47;;;;;;;16.12;82.83;96933.75;5006326;28;20571;-48
2023/10/19 08:42:42;;;;;;;6.63;1.45;;;;;;;16.22;82.29;96933.03;5005766;28;20108;-48
2023/10/19 08:45:12;;;;;;;4.30;1.13;;;;;;;16.28;82.10;96937.81;4998852;28;20049;-51
2023/10/19 08:47:48;;;;;;;8.23;1.40;;;;;;;16.24;82.33;96931.16;5004593;28;20050;-50
2023/10/19 08:50:15;;;;;;;7.35;1.23;;;;;;;16.17;82.53;96929.00;5004165;28;20130;-47
2023/10/19 08:52:43;;;;;;;11.20;2.88;;;;;;;16.13;82.28;96930.19;5005028;28;20443;-46
2023/10/19 08:55:12;;;;;;;2.67;1.48;;;;;;;16.12;81.98;96928.53;5005397;28;20483;-50
2023/10/19 08:57:40;;;;;;;4.47;1.50;;;;;;;16.10;82.64;96934.78;5002530;28;20046;-50
2023/10/19 09:00:08;;;;;;;2.50;1.05;;;;;;;16.09;81.87;96928.75;5004300;28;20052;-51
2023/10/19 09:02:35;;;;;;;3.33;1.52;;;;;;;16.07;82.93;96935.84;4999189;28;20547;-48
2023/10/19 09:05:06;;;;;;;2.65;1.52;;;;;;;15.99;82.95;96927.78;5005953;28;20046;-50
2023/10/19 09:07:34;;;;;;;5.68;2.13;;;;;;;16.00;82.25;96939.88;4998164;28;20509;-49
2023/10/19 09:10:02;;;;;;;6.88;1.17;;;;;;;15.94;83.00;96934.16;5004645;28;20077;-48
2023/10/19 09:12:30;;;;;;;5.70;0.68;;;;;;;16.02;83.25;96927.56;4999864;28;20042;-51
2023/10/19 09:14:56;;;;;;;3.30;1.50;;;;;;;16.35;83.18;96932.94;5003636;28;20057;-48
2023/10/19 09:17:31;;;;;;;3.35;1.38;;;;;;;16.47;83.42;96933.75;5009595;28;20054;-47
2023/10/19 09:20:02;;;;;;;2.67;1.13;;;;;;;16.55;82.87;96939.25;5005888;28;20056;-47
2023/10/19 09:22:36;;;;;;;5.88;0.98;;;;;;;16.53;82.39;96928.06;5002913;28;20046;-49
2023/10/19 09:25:06;;;;;;;9.77;1.60;;;;;;;16.51;82.36;96922.97;5008327;28;20084;-51
2023/10/19 09:27:33;;;;;;;4.57;1.25;;;;;;;16.52;82.52;96935.06;5005962;28;20181;-51
2023/10/19 09:30:02;;;;;;;5.97;1.75;;;;;;;16.50;81.69;96930.91;5008266;28;20046;-46
2023/10/19 09:32:29;;;;;;;12.57;1.30;;;;;;;16.48;81.79;96932.84;5008419;28;20069;-47
2023/10/19 09:34:57;;;;;;;9.88;1.80;;;;;;;16.47;82.39;96923.31;5005614;28;20124;-46
2023/10/19 09:37:26;;;;;;;6.85;1.45;;;;;;;16.41;82.57;96922.84;4997915;28;20142;-50
2023/10/19 09:39:53;;;;;;;7.90;1.60;;;;;;;16.43;83.06;96920.97;5009565;28;20056;-50
2023/10/19 09:42:21;;;;;;;7.43;0.95;;;;;;;16.43;82.96;96931.41;5006809;28;20127;-46
2023/10/19 09:44:57;;;;;;;7.95;1.70;;;;;;;16.43;82.66;96936.63;5006196;28;20112;-49
2023/10/19 09:47:35;;;;;;;9.20;1.95;;;;;;;16.39;82.87;96932.59;5000837;28;20125;-50
2023/10/19 09:50:05;;;;;;;5.20;1.48;;;;;;;16.41;82.82;96943.75;5007882;28;20507;-45
2023/10/19 09:52:33;;;;;;;8.18;1.67;;;;;;;16.39;82.79;96945.66;5008762;28;20494;-48
2023/10/19 09:55:10;;;;;;;5.03;1.20;;;;;;;16.40;82.04;96952.53;5008620;28;20136;-46
2023/10/19 09:57:48;;;;;;;4.63;0.52;;;;;;;16.41;81.93;96950.72;4997694;28;20112;-49
2023/10/19 10:00:23;;;;;;;6.00;1.42;;;;;;;16.41;82.73;96948.97;5008337;28;20050;-47
2023/10/19 10:02:51;;;;;;;4.38;1.25;;;;;;;16.44;81.90;96937.44;5008640;28;20057;-48
2023/10/19 10:10:55;;;;;;;8.85;1.40;;;;;;;16.45;82.06;96955.63;5084204;27;20393;-47
2023/10/19 10:16:03;;;;;;;5.72;1.25;;;;;;;16.51;82.34;96953.50;5061222;28;20391;-49
2023/10/19 10:18:32;;;;;;;13.25;1.90;;;;;;;16.52;82.79;96952.53;5021936;28;20049;-49
2023/10/19 10:21:15;;;;;;;7.35;1.75;;;;;;;16.52;81.97;96953.34;5028006;28;20060;-49
2023/10/19 10:23:44;;;;;;;8.73;1.73;;;;;;;16.55;82.01;96944.47;5037548;28;20135;-48
2023/10/19 10:26:13;;;;;;;5.63;2.42;;;;;;;16.55;82.61;96949.69;5041299;28;20052;-47
2023/10/19 10:28:45;;;;;;;8.18;1.48;;;;;;;16.55;82.45;96953.13;5033528;28;20053;-46
2023/10/19 10:31:15;;;;;;;7.40;1.50;;;;;;;16.60;81.95;96941.47;5029145;28;20248;-48
2023/10/19 10:36:21;;;;;;;4.88;2.85;;;;;;;16.56;82.93;96940.91;5069586;27;20403;-49
2023/10/19 10:38:50;;;;;;;11.52;3.92;;;;;;;16.60;82.23;96946.72;5056525;28;20106;-46
2023/10/19 10:41:22;;;;;;;11.18;2.75;;;;;;;16.62;82.70;96950.88;5052264;28;20142;-50
2023/10/19 10:46:28;;;;;;;9.05;1.52;;;;;;;16.83;82.67;96958.00;5051688;28;20383;-50
2023/10/19 10:48:56;;;;;;;10.07;1.40;;;;;;;16.87;81.67;96956.81;5024313;28;20046;-49
2023/10/19 10:51:27;;;;;;;10.43;1.52;;;;;;;16.92;82.18;96957.25;5023479;28;20038;-50
2023/10/19 10:53:54;;;;;;;4.60;1.52;;;;;;;16.97;81.48;96951.69;5023387;28;20451;-48
2023/10/19 10:56:23;;;;;;;10.07;1.73;;;;;;;17.09;81.78;96957.75;5017729;28;20055;-48
2023/10/19 10:58:50;;;;;;;4.85;0.88;;;;;;;17.15;81.78;96951.19;5022466;28;20049;-48
2023/10/19 11:01:32;;;;;;;6.78;1.40;;;;;;;17.16;81.02;96964.16;5021647;28;20050;-47
2023/10/19 11:04:10;;;;;;;8.43;1.90;;;;;;;17.17;80.54;96955.38;5013765;28;20525;-46
2023/10/19 11:06:56;;;;;;;7.90;1.75;;;;;;;17.20;80.00;96952.50;5022648;28;20045;-50
2023/10/19 11:09:23;;;;;;;9.57;1.88;;;;;;;17.31;80.36;96961.28;5020854;28;20065;-49
2023/10/19 11:11:52;;;;;;;12.45;1.88;;;;;;;17.49;80.46;96958.13;5017886;28;20145;-47
2023/10/19 11:14:18;;;;;;;10.18;1.90;;;;;;;17.66;80.37;96949.72;5021849;28;20053;-48
2023/10/19 11:16:45;;;;;;;6.57;2.03;;;;;;;17.85;79.88;96954.31;5022529;28;20076;-48
2023/10/19 11:19:12;;;;;;;13.95;1.67;;;;;;;17.97;79.09;96951.63;5017178;28;20054;-50
2023/10/19 11:21:52;;;;;;;9.38;1.70;;;;;;;18.10;79.45;96940.97;5021815;28;20046;-50
2023/10/19 11:24:26;;;;;;;10.02;1.88;;;;;;;18.22;78.87;96939.13;5017184;28;20049;-51
2023/10/19 11:26:54;;;;;;;4.88;1.33;;;;;;;18.28;78.56;96937.78;5016038;28;20074;-46
2023/10/19 11:29:22;;;;;;;7.47;1.88;;;;;;;18.39;78.45;96940.31;5020976;28;20624;-48
2023/10/19 11:31:58;;;;;;;12.60;1.98;;;;;;;18.46;78.48;96932.75;5022343;28;20045;-50
2023/10/19 11:34:25;;;;;;;10.45;1.55;;;;;;;18.58;78.80;96930.88;5020871;28;20052;-44
2023/10/19 11:36:59;;;;;;;9.07;1.83;;;;;;;18.66;77.86;96931.03;5020815;28;20046;-49
2023/10/19 11:39:27;;;;;;;12.98;1.95;;;;;;;18.71;78.06;96923.59;5018844;28;20061;-51
2023/10/19 11:41:53;;;;;;;7.88;1.15;;;;;;;18.84;77.97;96925.16;5018078;28;20133;-47
2023/10/19 11:44:20;;;;;;;9.60;1.52;;;;;;;19.02;78.18;96926.16;5022165;28;20038;-48
2023/10/19 11:46:47;;;;;;;9.30;1.70;;;;;;;19.23;77.45;96919.19;5022679;28;20108;-45
2023/10/19 11:49:14;;;;;;;7.63;1.50;;;;;;;19.39;76.83;96916.06;5017617;28;20103;-51
2023/10/19 11:51:41;;;;;;;10.18;1.35;;;;;;;19.44;75.83;96916.47;5021773;28;20047;-50
2023/10/19 11:54:07;;;;;;;4.53;1.58;;;;;;;19.40;75.28;96915.06;5019260;28;20069;-46
2023/10/19 11:56:34;;;;;;;9.55;1.50;;;;;;;19.42;75.52;96914.94;5012854;28;20565;-50
2023/10/19 11:59:01;;;;;;;4.50;1.33;;;;;;;19.52;74.93;96913.97;5007771;28;20052;-51
2023/10/19 12:01:29;;;;;;;4.38;1.40;;;;;;;19.44;73.58;96913.00;5004913;28;20058;-48
2023/10/19 12:03:56;;;;;;;3.97;1.02;;;;;;;19.24;72.38;96903.31;5009161;28;20053;-46
2023/10/19 12:06:23;;;;;;;2.97;0.98;;;;;;;19.10;72.38;96906.34;5019840;28;20466;-48
2023/10/19 12:08:55;;;;;;;8.45;1.38;;;;;;;18.98;72.45;96908.25;5016294;28;20052;-47
2023/10/19 12:11:24;;;;;;;5.53;1.33;;;;;;;19.09;73.28;96909.94;5007118;28;20057;-47
2023/10/19 12:13:50;;;;;;;8.95;0.90;;;;;;;19.25;73.27;96904.97;5005071;28;20045;-46
2023/10/19 12:16:19;;;;;;;6.28;1.70;;;;;;;19.25;72.71;96904.16;5007467;28;20046;-49
2023/10/19 12:18:48;;;;;;;13.93;1.50;;;;;;;19.10;72.22;96907.19;5007507;28;20053;-46
2023/10/19 12:21:17;;;;;;;5.57;1.20;;;;;;;19.02;72.08;96910.44;5005451;28;20119;-46
2023/10/19 12:23:51;;;;;;;4.60;0.90;;;;;;;18.93;72.53;96906.00;5004586;28;20050;-46
2023/10/19 12:26:19;;;;;;;6.75;1.58;;;;;;;18.84;72.15;96902.41;5006990;28;20049;-45
2023/10/19 12:28:47;;;;;;;8.43;1.58;;;;;;;18.83;72.04;96899.91;5000262;28;20058;-50
2023/10/19 12:31:18;;;;;;;7.15;1.25;;;;;;;18.74;72.31;96906.78;5010102;28;20088;-48
2023/10/19 12:33:45;;;;;;;4.40;1.05;;;;;;;18.66;72.31;96904.84;5027789;28;20064;-45
2023/10/19 12:39:05;;;;;;;7.10;2.42;;;;;;;18.64;73.14;96904.13;5055055;27;20750;-46
2023/10/19 12:41:34;;;;;;;3.05;0.93;;;;;;;18.60;72.47;96900.13;5032308;28;20517;-50